सभी
Hay Airport (Hay, New South Wales) HXX मौसम
|
Hay, New South Wales (HXX / YHAY)
स्वच्छ आकाश
हल्की हवाएं |
|
12 °C |
There is no TAF data available at HXX or any nearby airports.
Recent HXX METAR history
| Date | Time (AEST) | Flight Rules | Wind Dir. | Speed | Type | Height AGL (ft) | Visibility | Temp (°C) | Temp (°F) | Dew Point (°C) | Dew Point (°F) | Rel. Humid. | Pressure | Density Altitude | Remarks |
|---|---|---|---|---|---|---|---|---|---|---|---|---|---|---|---|
| 05-मई | 00:00 | n/a | 290° | 7 kt | Missing | 12° | 53° | 10° | 50° | 88% | 1018 mb | -197 ft | |||
| 04-मई | 23:00 | n/a | 290° | 5 kt | Missing | 11° | 51° | 10° | 50° | 94% | 1018 mb | -317 ft | |||
| 04-मई | 22:00 | n/a | 290° | 7 kt | Missing | 13° | 55° | 10° | 50° | 82% | 1018 mb | -77 ft | |||
| 04-मई | 21:00 | n/a | 280° | 5 kt | Missing | 13° | 55° | 9° | 48° | 77% | 1018 mb | -77 ft | |||
| 04-मई | 20:00 | n/a | 260° | 9 kt | Missing | 16° | 60° | 9° | 48° | 63% | 1017 mb | 313 ft | |||
| 04-मई | 19:00 | n/a | 320° | 7 kt | Missing | 16° | 60° | 8° | 46° | 59% | 1016 mb | 343 ft | |||
| 04-मई | 18:00 | n/a | 330° | 8 kt | Missing | 15° | 59° | 8° | 46° | 63% | 1015 mb | 252 ft | |||
| 04-मई | 17:00 | n/a | 310° | 15 kt | Missing | 18° | 64° | 6° | 42° | 45% | 1014 mb | 642 ft | |||
| 04-मई | 16:00 | n/a | 300° | 15 kt | Missing | 20° | 68° | 6° | 42° | 40% | 1014 mb | 882 ft | |||
| 04-मई | 15:00 | n/a | 330° | 15 kt | Missing | 21° | 69° | 6° | 42° | 38% | 1013 mb | 1,031 ft | |||
| 04-मई | 14:00 | n/a | 340° | 15 kt | Missing | 20° | 68° | 8° | 46° | 46% | 1014 mb | 882 ft | |||
| 04-मई | 13:00 | n/a | 330° | 13 kt | Missing | 20° | 68° | 9° | 48° | 49% | 1014 mb | 882 ft | |||
| 04-मई | 12:00 | n/a | 340° | 11 kt | Missing | 19° | 66° | 10° | 50° | 56% | 1015 mb | 732 ft | |||
| 04-मई | 11:00 | n/a | 340° | 9 kt | Missing | 18° | 64° | 11° | 51° | 64% | 1016 mb | 583 ft | |||
| 04-मई | 10:00 | n/a | 320° | 8 kt | Missing | 16° | 60° | 12° | 53° | 77% | 1016 mb | 343 ft | |||
| 04-मई | 09:00 | n/a | 330° | 8 kt | Missing | 13° | 55° | 11° | 51° | 88% | 1016 mb | -17 ft | |||
| 04-मई | 08:00 | n/a | 360° | 8 kt | Missing | 11° | 51° | 11° | 51° | 100% | 1015 mb | -228 ft | |||
| 04-मई | 07:00 | n/a | 360° | 7 kt | Missing | 9° | 48° | 9° | 48° | 100% | 1015 mb | -468 ft | |||
| 04-मई | 06:00 | n/a | 350° | 6 kt | Missing | 10° | 50° | 10° | 50° | 100% | 1014 mb | -318 ft | |||
| 04-मई | 05:00 | n/a | 330° | 6 kt | Missing | 10° | 50° | 10° | 50° | 100% | 1014 mb | -318 ft | |||
| 04-मई | 04:00 | n/a | 340° | 6 kt | Missing | 10° | 50° | 10° | 50° | 100% | 1014 mb | -318 ft | |||
| 04-मई | 03:00 | n/a | 330° | 6 kt | Missing | 10° | 50° | 10° | 50° | 100% | 1014 mb | -318 ft | |||
| 04-मई | 02:00 | n/a | 340° | 6 kt | Missing | 11° | 51° | 11° | 51° | 100% | 1015 mb | -228 ft | |||
| 04-मई | 01:00 | n/a | 330° | 7 kt | Missing | 11° | 51° | 11° | 51° | 100% | 1015 mb | -228 ft |
लॉगिन
| Your browser is unsupported. अपना ब्राऊजर अपग्रेड करें |
